Time;durP1;ratioP1;P1;durP2;ratioP2;P2;SDS_P1;SDS_P2;PMS_P1;PMS_P2;Temp;Humidity;BMP_temperature;BMP_pressure;BME280_temperature;BME280_humidity;BME280_pressure;Samples;Min_cycle;Max_cycle;Signal;HPM_P1;HPM_P2
2024/03/05 00:01:06;;;;;;;19.08;8.40;;;;;;;8.36;53.51;101356.75;4976992;28;100608;-85
2024/03/05 00:03:32;;;;;;;15.32;7.60;;;;;;;8.36;53.60;101356.75;4971436;28;96842;-85
2024/03/05 00:05:57;;;;;;;13.52;5.85;;;;;;;8.34;53.72;101358.38;4985135;28;96998;-86
2024/03/05 00:08:23;;;;;;;19.35;6.57;;;;;;;8.33;53.65;101359.25;4987705;28;97355;-92
2024/03/05 00:10:49;;;;;;;15.75;7.22;;;;;;;8.31;53.72;101360.91;4966901;28;98935;-92
2024/03/05 00:13:14;;;;;;;14.05;7.85;;;;;;;8.29;53.76;101365.16;4969705;28;96804;-91
2024/03/05 00:15:40;;;;;;;15.43;6.63;;;;;;;8.27;53.86;101361.63;4982846;28;96816;-85
2024/03/05 00:18:05;;;;;;;13.25;7.30;;;;;;;8.26;53.81;101363.34;4985516;28;97261;-85
2024/03/05 00:20:34;;;;;;;15.38;7.72;;;;;;;8.25;53.84;101361.59;4968851;28;100186;-86
2024/03/05 00:23:00;;;;;;;14.82;8.10;;;;;;;8.24;53.81;101358.97;4962691;28;96893;-85
2024/03/05 00:25:26;;;;;;;14.88;6.95;;;;;;;8.20;53.84;101358.88;4982429;28;96864;-85
2024/03/05 00:27:52;;;;;;;15.05;7.35;;;;;;;8.19;53.73;101359.69;4983797;28;100220;-86
2024/03/05 00:30:18;;;;;;;13.75;7.10;;;;;;;8.16;54.00;101362.22;4990270;28;100479;-92
2024/03/05 00:32:45;;;;;;;18.35;8.40;;;;;;;8.16;54.04;101357.00;4977157;28;96954;-91
2024/03/05 00:35:10;;;;;;;17.02;8.18;;;;;;;8.14;54.30;101361.25;4991320;28;96733;-92
2024/03/05 00:37:37;;;;;;;17.15;8.85;;;;;;;8.12;54.09;101357.72;4971021;28;100485;-86
2024/03/05 00:40:08;;;;;;;16.98;8.05;;;;;;;8.11;54.00;101361.19;4980621;28;100616;-86
2024/03/05 00:42:34;;;;;;;18.10;8.63;;;;;;;8.10;54.26;101358.53;4970437;28;96741;-92
2024/03/05 00:45:00;;;;;;;14.35;8.95;;;;;;;8.08;54.23;101355.88;4967854;28;97048;-86
2024/03/05 00:47:28;;;;;;;14.88;8.25;;;;;;;8.05;54.16;101358.38;4989427;28;100069;-92
2024/03/05 00:49:55;;;;;;;15.60;7.35;;;;;;;8.03;54.11;101359.19;4995135;28;97515;-92
2024/03/05 00:52:20;;;;;;;15.20;8.10;;;;;;;7.99;54.44;101366.88;4996872;28;96960;-91
2024/03/05 00:54:46;;;;;;;17.55;8.07;;;;;;;7.98;54.15;101365.09;4995199;28;96884;-92
2024/03/05 00:57:12;;;;;;;17.63;8.48;;;;;;;7.97;54.13;101368.53;4981243;28;99080;-91
2024/03/05 00:59:38;;;;;;;15.70;7.40;;;;;;;7.95;54.27;101362.41;4975910;28;100460;-91
2024/03/05 01:02:04;;;;;;;15.35;8.55;;;;;;;7.91;54.20;101360.53;4974400;28;96774;-93
2024/03/05 01:04:30;;;;;;;17.48;8.52;;;;;;;7.91;54.47;101364.88;4999350;28;96758;-93
2024/03/05 01:06:58;;;;;;;14.63;8.02;;;;;;;7.89;54.45;101359.63;4996290;28;99692;-93
2024/03/05 01:09:24;;;;;;;16.33;6.95;;;;;;;7.86;54.17;101359.53;4998656;28;96812;-93
2024/03/05 01:11:53;;;;;;;17.20;7.57;;;;;;;7.84;54.41;101361.19;4990655;28;96829;-93
2024/03/05 01:14:20;;;;;;;18.80;8.10;;;;;;;7.80;54.39;101360.19;4991279;28;96867;-92
2024/03/05 01:16:46;;;;;;;18.08;7.95;;;;;;;7.77;54.36;101367.00;4992585;28;96732;-92
2024/03/05 01:19:14;;;;;;;18.42;9.20;;;;;;;7.72;54.58;101361.69;4972736;28;100438;-91
2024/03/05 01:21:43;;;;;;;19.20;8.15;;;;;;;7.69;54.55;101358.97;4974103;28;96925;-86
2024/03/05 01:24:11;;;;;;;14.77;9.07;;;;;;;7.69;54.36;101358.97;4976600;28;96897;-86
2024/03/05 01:26:38;;;;;;;16.33;7.78;;;;;;;7.68;54.42;101351.13;4977753;28;99916;-86
2024/03/05 01:29:05;;;;;;;19.70;8.02;;;;;;;7.68;54.41;101352.00;4977801;28;99862;-92
2024/03/05 01:31:34;;;;;;;17.27;7.97;;;;;;;7.67;54.62;101352.00;4980733;28;96991;-86
2024/03/05 01:34:00;;;;;;;17.33;8.48;;;;;;;7.64;54.53;101352.75;4979801;28;96767;-86
2024/03/05 01:36:26;;;;;;;19.02;9.05;;;;;;;7.61;54.74;101348.34;5014683;28;100857;-86
2024/03/05 01:38:52;;;;;;;17.45;8.10;;;;;;;7.60;54.72;101346.56;4972376;28;100474;-86
2024/03/05 01:41:18;;;;;;;23.67;10.68;;;;;;;7.59;54.69;101347.44;4970693;28;96737;-86
2024/03/05 01:43:44;;;;;;;24.73;10.70;;;;;;;7.56;54.75;101347.31;4985425;28;96767;-85
2024/03/05 01:46:13;;;;;;;20.77;9.65;;;;;;;7.55;54.75;101347.25;4988599;28;100393;-86
2024/03/05 01:48:41;;;;;;;21.45;10.57;;;;;;;7.54;55.03;101348.09;4976780;28;100265;-92
2024/03/05 01:51:07;;;;;;;21.45;9.57;;;;;;;7.51;55.24;101345.41;4995673;28;96829;-92
2024/03/05 01:53:33;;;;;;;27.58;11.57;;;;;;;7.52;55.57;101349.75;4978565;28;96871;-90
2024/03/05 01:55:59;;;;;;;24.83;10.18;;;;;;;7.52;55.55;101348.06;4996664;28;97742;-91
2024/03/05 01:58:25;;;;;;;25.10;11.15;;;;;;;7.54;55.64;101343.78;4997746;28;100500;-91
2024/03/05 02:00:51;;;;;;;25.77;13.02;;;;;;;7.59;55.72;101349.13;4998477;28;96884;-91
2024/03/05 02:03:17;;;;;;;28.45;11.90;;;;;;;7.62;55.91;101344.91;4992422;28;96943;-85
2024/03/05 02:05:44;;;;;;;31.70;13.90;;;;;;;7.68;55.86;101346.81;4993217;28;100389;-85
2024/03/05 02:08:11;;;;;;;33.42;13.75;;;;;;;7.72;56.33;101345.19;4974678;28;100478;-93
2024/03/05 02:10:38;;;;;;;31.63;12.27;;;;;;;7.76;56.51;101345.38;4981596;28;96807;-91
2024/03/05 02:13:04;;;;;;;26.40;11.93;;;;;;;7.81;56.32;101338.59;4980479;28;96699;-92
2024/03/05 02:15:29;;;;;;;28.65;13.00;;;;;;;7.86;56.39;101332.66;4981249;28;100226;-92
2024/03/05 02:17:55;;;;;;;26.85;12.30;;;;;;;7.90;56.37;101340.63;4977803;28;100858;-92
2024/03/05 02:20:21;;;;;;;27.95;12.25;;;;;;;7.95;56.11;101341.63;4975384;28;96835;-90
2024/03/05 02:22:46;;;;;;;28.80;12.95;;;;;;;7.96;56.32;101338.19;4997165;28;96707;-92
2024/03/05 02:25:15;;;;;;;31.98;12.68;;;;;;;7.99;56.25;101338.28;4980105;28;100409;-94
2024/03/05 02:27:40;;;;;;;30.20;12.77;;;;;;;8.02;56.51;101337.50;4994991;28;97418;-93
2024/03/05 02:30:10;;;;;;;30.42;11.70;;;;;;;8.03;56.33;101336.69;4973830;28;96742;-92
2024/03/05 02:32:40;;;;;;;28.02;13.57;;;;;;;8.05;56.62;101337.59;4977245;28;96859;-92
2024/03/05 02:35:07;;;;;;;26.45;12.82;;;;;;;8.07;56.49;101338.53;4993539;28;97786;-92
2024/03/05 02:37:38;;;;;;;30.30;13.48;;;;;;;8.09;56.54;101343.78;4982999;28;99961;-93
2024/03/05 02:40:08;;;;;;;25.75;11.18;;;;;;;8.10;56.36;101349.00;4975652;28;96829;-92
2024/03/05 02:42:35;;;;;;;30.58;13.07;;;;;;;8.10;56.44;101343.81;4984755;28;96830;-92
2024/03/05 02:45:04;;;;;;;30.35;12.50;;;;;;;8.11;56.43;101344.69;4991562;28;97985;-92
2024/03/05 02:47:35;;;;;;;30.77;11.65;;;;;;;8.10;56.43;101349.00;4986748;28;100255;-86
2024/03/05 02:50:03;;;;;;;26.80;10.98;;;;;;;8.10;56.46;101337.75;4985126;28;96832;-86
2024/03/05 02:52:30;;;;;;;29.30;12.32;;;;;;;8.12;56.32;101346.47;4973170;28;97073;-86
2024/03/05 02:54:57;;;;;;;30.75;12.85;;;;;;;8.12;56.33;101347.34;4977863;28;100211;-92
2024/03/05 02:57:24;;;;;;;32.58;12.57;;;;;;;8.12;56.46;101342.16;4980174;28;100254;-92
2024/03/05 02:59:50;;;;;;;31.13;14.05;;;;;;;8.12;56.52;101341.28;4980187;28;96814;-92
2024/03/05 03:02:16;;;;;;;29.95;12.63;;;;;;;8.12;56.43;101344.75;4995418;28;96786;-92
2024/03/05 03:04:41;;;;;;;35.90;14.68;;;;;;;8.11;56.87;101337.81;4993430;28;96860;-92
2024/03/05 03:07:07;;;;;;;34.65;12.88;;;;;;;8.12;56.89;101343.88;4990173;28;97505;-86
2024/03/05 03:09:33;;;;;;;35.90;14.57;;;;;;;8.13;57.05;101340.44;4973332;28;96815;-86
2024/03/05 03:11:58;;;;;;;32.67;13.30;;;;;;;8.13;56.78;101340.44;4980648;28;96840;-85
2024/03/05 03:14:24;;;;;;;33.78;13.85;;;;;;;8.15;57.15;101337.06;4989385;28;97545;-86
2024/03/05 03:16:49;;;;;;;37.13;13.05;;;;;;;8.17;57.03;101324.97;4983787;28;100263;-85
2024/03/05 03:19:16;;;;;;;36.75;15.38;;;;;;;8.18;57.00;101331.06;4971531;28;96772;-86
2024/03/05 03:21:43;;;;;;;37.45;14.30;;;;;;;8.19;57.40;101332.81;4992209;28;96865;-86
2024/03/05 03:24:12;;;;;;;36.35;13.25;;;;;;;8.21;57.38;101325.94;4984581;28;97472;-85
2024/03/05 03:26:40;;;;;;;36.22;15.50;;;;;;;8.22;57.36;101321.63;4984179;28;97785;-85
2024/03/05 03:29:11;;;;;;;35.97;15.38;;;;;;;8.25;57.45;101321.72;4983686;28;96793;-85
2024/03/05 03:31:45;;;;;;;37.70;14.20;;;;;;;8.26;57.62;101328.69;4970052;28;97120;-85
2024/03/05 03:34:11;;;;;;;33.08;13.25;;;;;;;8.29;57.60;101328.78;4993745;28;97922;-93
2024/03/05 03:36:36;;;;;;;31.08;14.27;;;;;;;8.31;57.55;101327.13;4980309;28;100080;-92
2024/03/05 03:39:02;;;;;;;37.03;14.18;;;;;;;8.32;57.66;101323.66;4986697;28;96854;-86
2024/03/05 03:41:28;;;;;;;34.72;14.23;;;;;;;8.35;57.85;101324.63;4966979;28;96933;-86
2024/03/05 03:43:53;;;;;;;35.72;12.75;;;;;;;8.38;58.00;101329.06;4968739;28;99762;-85
2024/03/05 03:46:19;;;;;;;34.53;13.95;;;;;;;8.42;57.68;101324.84;4987532;28;97277;-86
2024/03/05 03:48:45;;;;;;;33.63;14.00;;;;;;;8.44;57.92;101323.19;4987616;28;96832;-85
2024/03/05 03:51:13;;;;;;;32.92;13.73;;;;;;;8.47;57.91;101328.50;4965532;28;96865;-86
2024/03/05 03:53:43;;;;;;;33.28;14.32;;;;;;;8.49;58.03;101326.81;4971685;28;99031;-85
2024/03/05 03:56:09;;;;;;;29.73;12.57;;;;;;;8.51;57.95;101326.00;4994332;28;100582;-85
2024/03/05 03:58:35;;;;;;;27.67;12.50;;;;;;;8.54;58.08;101326.09;4992429;28;96851;-91
2024/03/05 04:01:02;;;;;;;31.08;14.07;;;;;;;8.57;58.06;101325.28;4974892;28;96974;-91
2024/03/05 04:03:29;;;;;;;28.05;12.10;;;;;;;8.62;58.25;101325.44;5001364;28;99273;-93
2024/03/05 04:05:55;;;;;;;30.30;12.45;;;;;;;8.65;58.12;101326.41;5000422;28;100416;-92
2024/03/05 04:08:20;;;;;;;31.08;12.68;;;;;;;8.67;58.24;101326.44;4999396;28;96830;-92
2024/03/05 04:10:46;;;;;;;30.55;13.43;;;;;;;8.71;58.15;101328.28;4970396;28;96785;-86
2024/03/05 04:13:11;;;;;;;31.13;13.55;;;;;;;8.73;58.25;101326.59;4978267;28;97576;-86
2024/03/05 04:15:36;;;;;;;27.02;11.90;;;;;;;8.75;58.15;101328.44;4976094;28;100714;-93
2024/03/05 04:18:02;;;;;;;29.85;12.95;;;;;;;8.77;58.14;101329.34;4994060;28;96765;-92
2024/03/05 04:20:28;;;;;;;30.38;12.77;;;;;;;8.77;58.18;101318.94;4980680;28;96710;-92
2024/03/05 04:22:53;;;;;;;34.55;14.50;;;;;;;8.81;58.16;101313.84;4990110;28;99920;-93
2024/03/05 04:25:24;;;;;;;27.55;11.85;;;;;;;8.83;58.13;101320.81;5004472;28;100300;-85
2024/03/05 04:27:49;;;;;;;29.80;14.05;;;;;;;8.85;58.24;101318.28;4983745;28;96801;-85
2024/03/05 04:30:15;;;;;;;34.70;14.30;;;;;;;8.86;58.27;101317.41;4994108;28;96882;-84
2024/03/05 04:32:46;;;;;;;36.28;15.00;;;;;;;8.88;58.33;101320.97;4991700;28;100158;-94
2024/03/05 04:35:16;;;;;;;31.70;14.60;;;;;;;8.90;58.13;101327.09;4991946;28;96688;-85
2024/03/05 04:37:42;;;;;;;31.58;14.27;;;;;;;8.91;58.43;101327.13;4995620;28;96892;-86
2024/03/05 04:40:12;;;;;;;30.88;14.13;;;;;;;8.94;58.36;101331.53;4977532;28;96963;-85
2024/03/05 04:42:41;;;;;;;37.13;13.75;;;;;;;8.97;58.49;101329.00;4971495;28;101402;-86
2024/03/05 04:45:07;;;;;;;33.53;13.02;;;;;;;8.99;58.42;101323.84;4966881;28;99843;-87
2024/03/05 04:47:33;;;;;;;34.92;13.27;;;;;;;9.02;58.32;101329.09;4974594;28;96994;-93
2024/03/05 04:49:59;;;;;;;32.25;14.73;;;;;;;9.06;58.54;101328.38;4996035;28;96933;-91
2024/03/05 04:52:27;;;;;;;36.83;13.40;;;;;;;9.09;58.67;101325.84;4988888;28;99988;-93
2024/03/05 04:54:56;;;;;;;32.80;13.73;;;;;;;9.13;58.50;101325.97;5012115;28;99118;-92
2024/03/05 04:57:21;;;;;;;35.35;15.32;;;;;;;9.16;58.62;101322.53;4996380;28;96809;-92
2024/03/05 04:59:46;;;;;;;35.63;15.85;;;;;;;9.20;58.43;101328.72;5002061;28;96911;-93
2024/03/05 05:02:12;;;;;;;33.20;13.38;;;;;;;9.22;58.50;101325.31;4979658;28;99211;-93
2024/03/05 05:04:38;;;;;;;32.25;15.00;;;;;;;9.29;58.46;101328.97;4980651;28;99613;-93
2024/03/05 05:07:05;;;;;;;31.98;14.80;;;;;;;9.33;58.53;101331.69;4997344;28;96974;-93
2024/03/05 05:09:31;;;;;;;35.22;13.73;;;;;;;9.35;58.52;101334.31;4977173;28;96784;-93
2024/03/05 05:11:57;;;;;;;35.47;14.88;;;;;;;9.39;58.31;101328.34;4998608;28;99241;-92
2024/03/05 05:14:23;;;;;;;31.17;14.75;;;;;;;9.40;58.29;101324.91;4989579;28;96730;-93
2024/03/05 05:16:48;;;;;;;33.03;14.60;;;;;;;9.40;58.20;101329.25;4995523;28;96816;-92
2024/03/05 05:19:16;;;;;;;30.50;13.77;;;;;;;9.41;58.17;101338.78;4976169;28;97016;-87
2024/03/05 05:21:47;;;;;;;36.20;16.15;;;;;;;9.41;58.49;101338.78;4977380;28;100322;-86
2024/03/05 05:24:13;;;;;;;33.97;14.25;;;;;;;9.41;58.31;101337.09;4991647;28;97940;-86
2024/03/05 05:26:39;;;;;;;36.22;15.30;;;;;;;9.45;58.36;101335.44;4966230;28;96837;-86
2024/03/05 05:29:05;;;;;;;33.83;13.52;;;;;;;9.43;58.37;101335.41;4976624;28;96852;-86
2024/03/05 05:31:31;;;;;;;32.63;14.23;;;;;;;9.43;58.15;101339.72;4980979;28;100297;-86
2024/03/05 05:33:57;;;;;;;33.00;12.98;;;;;;;9.43;58.30;101342.31;4971018;28;100238;-86
2024/03/05 05:36:22;;;;;;;34.47;14.05;;;;;;;9.45;58.37;101338.06;4980562;28;96862;-86
2024/03/05 05:38:51;;;;;;;31.58;14.75;;;;;;;9.47;58.38;101339.84;4990289;28;96971;-93
2024/03/05 05:41:21;;;;;;;37.47;15.50;;;;;;;9.46;58.47;101343.28;4979938;28;100248;-92
2024/03/05 05:43:48;;;;;;;33.60;13.73;;;;;;;9.48;58.58;101348.53;4991829;28;96868;-87
2024/03/05 05:46:21;;;;;;;39.60;16.42;;;;;;;9.52;58.52;101358.19;4981612;28;96859;-86
2024/03/05 05:48:52;;;;;;;34.55;16.67;;;;;;;9.54;58.55;101353.91;4985224;28;96864;-87
2024/03/05 05:51:18;;;;;;;39.75;17.45;;;;;;;9.58;58.55;101353.13;4971057;28;100282;-88
2024/03/05 05:53:44;;;;;;;42.75;18.75;;;;;;;9.58;58.68;101349.66;4975530;28;100341;-88
2024/03/05 05:56:10;;;;;;;45.15;17.08;;;;;;;9.58;58.84;101353.13;4971070;28;97140;-88
2024/03/05 05:58:36;;;;;;;41.95;18.00;;;;;;;9.61;58.65;101349.72;4990282;28;97027;-88
2024/03/05 06:01:05;;;;;;;46.45;16.83;;;;;;;9.64;58.79;101353.28;5004815;28;98057;-94
2024/03/05 06:03:35;;;;;;;46.35;19.90;;;;;;;9.69;59.01;101363.81;4977531;28;99264;-88
2024/03/05 06:06:03;;;;;;;42.00;19.83;;;;;;;9.71;58.74;101356.91;4973571;28;96730;-89
2024/03/05 06:08:29;;;;;;;43.25;16.20;;;;;;;9.75;58.92;101363.06;4971747;28;96827;-88
2024/03/05 06:10:56;;;;;;;42.20;17.60;;;;;;;9.76;58.89;101360.50;4968008;28;100810;-88
2024/03/05 06:13:24;;;;;;;45.00;16.33;;;;;;;9.80;59.07;101361.47;4996253;28;97938;-89
2024/03/05 06:15:50;;;;;;;48.28;16.92;;;;;;;9.82;58.91;101354.56;4971053;28;96888;-88
2024/03/05 06:18:16;;;;;;;45.67;17.45;;;;;;;9.84;59.14;101355.47;4987719;28;96794;-88
2024/03/05 06:20:43;;;;;;;47.90;17.58;;;;;;;9.86;58.90;101365.09;4989107;28;97859;-90
2024/03/05 06:23:11;;;;;;;56.35;21.58;;;;;;;9.89;58.89;101366.88;4987654;28;97660;-88
2024/03/05 06:25:37;;;;;;;44.03;18.95;;;;;;;9.90;58.89;101363.44;4975946;28;96733;-91
2024/03/05 06:28:03;;;;;;;42.08;15.75;;;;;;;9.92;59.00;101366.97;5002244;28;96739;-91
2024/03/05 06:30:28;;;;;;;44.60;18.00;;;;;;;9.94;59.02;101374.81;5001258;28;100138;-91
2024/03/05 06:32:54;;;;;;;44.97;18.55;;;;;;;9.93;58.95;101371.34;4981943;28;100252;-91
2024/03/05 06:35:24;;;;;;;47.38;16.67;;;;;;;9.94;58.87;101369.63;4983479;28;96684;-92
2024/03/05 06:37:53;;;;;;;45.47;18.17;;;;;;;9.98;59.07;101377.56;4981857;28;96859;-92
2024/03/05 06:40:19;;;;;;;45.08;18.10;;;;;;;10.00;59.03;101370.66;4981190;28;99114;-92
2024/03/05 06:42:52;;;;;;;50.38;18.98;;;;;;;10.03;59.09;101375.03;4999583;28;100197;-92
2024/03/05 06:45:26;;;;;;;47.50;18.95;;;;;;;10.05;58.97;101374.25;4997192;28;96699;-91
2024/03/05 06:48:00;;;;;;;49.33;19.30;;;;;;;10.06;59.06;101372.50;5003630;28;96731;-92
2024/03/05 06:50:36;;;;;;;46.78;19.85;;;;;;;10.07;59.22;101376.84;5001349;28;100219;-92
2024/03/05 06:58:37;;;;;;;49.80;19.02;;;;;;;10.16;59.22;101384.00;4997272;28;96667;-91
2024/03/05 07:01:09;;;;;;;54.95;20.42;;;;;;;10.18;59.20;101379.72;4996284;28;98954;-90
2024/03/05 07:03:35;;;;;;;54.35;20.13;;;;;;;10.20;59.09;101386.75;4995539;28;99816;-92
2024/03/05 07:06:08;;;;;;;53.58;20.77;;;;;;;10.23;59.31;101397.25;4974989;28;96678;-91
2024/03/05 07:08:35;;;;;;;58.17;22.60;;;;;;;10.26;59.21;101397.28;4976013;28;96820;-91
2024/03/05 07:11:05;;;;;;;56.25;22.73;;;;;;;10.29;59.39;101397.38;4975530;28;100478;-91
2024/03/05 07:13:32;;;;;;;49.72;19.35;;;;;;;10.34;59.43;101400.13;4977746;28;99045;-91
2024/03/05 07:15:57;;;;;;;59.80;23.23;;;;;;;10.37;59.34;101402.78;4995293;28;96777;-90
2024/03/05 07:18:23;;;;;;;57.50;22.98;;;;;;;10.39;59.32;101398.50;4976596;28;96806;-90
2024/03/05 07:20:48;;;;;;;59.40;22.55;;;;;;;10.43;59.36;101400.31;4975990;28;98830;-90
2024/03/05 07:23:14;;;;;;;59.42;23.17;;;;;;;10.47;59.76;101396.94;4992610;28;100331;-90
2024/03/05 07:25:39;;;;;;;59.47;23.30;;;;;;;10.52;59.46;101397.03;4975640;28;96781;-89
2024/03/05 07:28:05;;;;;;;57.10;21.15;;;;;;;10.54;59.25;101404.91;4974507;28;96902;-89
2024/03/05 07:30:30;;;;;;;61.05;21.45;;;;;;;10.57;59.62;101398.03;4973989;28;99367;-89
2024/03/05 07:32:56;;;;;;;59.33;21.83;;;;;;;10.59;59.50;101396.31;4978311;28;100360;-89
2024/03/05 07:35:22;;;;;;;62.05;23.63;;;;;;;10.61;59.29;101398.97;4972963;28;96895;-89
2024/03/05 07:37:48;;;;;;;61.60;21.55;;;;;;;10.59;59.44;101396.31;4976092;28;97074;-90
2024/03/05 07:40:17;;;;;;;59.13;21.67;;;;;;;10.58;59.42;101397.16;4977429;28;100763;-90
2024/03/05 07:42:47;;;;;;;63.85;23.88;;;;;;;10.63;59.56;101402.47;4977685;28;100096;-90
2024/03/05 07:45:19;;;;;;;64.72;25.00;;;;;;;10.66;59.48;101397.34;4973463;28;96886;-90
2024/03/05 07:47:45;;;;;;;65.93;23.63;;;;;;;10.69;59.63;101396.50;4991275;28;96927;-90
2024/03/05 07:50:12;;;;;;;61.13;23.15;;;;;;;10.69;59.60;101407.81;4987919;28;100247;-90
2024/03/05 07:52:39;;;;;;;59.83;24.38;;;;;;;10.71;59.78;101397.41;4977049;28;99912;-90
2024/03/05 07:55:07;;;;;;;54.05;20.88;;;;;;;10.73;59.57;101398.31;4996700;28;97269;-91
2024/03/05 07:57:34;;;;;;;58.33;23.80;;;;;;;10.75;59.70;101396.63;4979370;28;96858;-91
2024/03/05 08:00:00;;;;;;;61.25;22.80;;;;;;;10.76;59.68;101396.66;4978033;28;100357;-90
2024/03/05 08:02:25;;;;;;;55.65;21.25;;;;;;;10.77;59.49;101398.44;4978133;28;100372;-91
2024/03/05 08:04:51;;;;;;;57.67;23.10;;;;;;;10.79;59.58;101401.94;4978823;28;96666;-91
2024/03/05 08:07:16;;;;;;;60.47;22.73;;;;;;;10.78;59.38;101402.78;4974490;28;96644;-91
2024/03/05 08:09:42;;;;;;;62.75;22.17;;;;;;;10.79;59.39;101412.38;4990607;28;100668;-91
2024/03/05 08:12:07;;;;;;;61.05;24.10;;;;;;;10.79;59.58;101404.56;4991672;28;100085;-91
2024/03/05 08:14:33;;;;;;;64.35;23.27;;;;;;;10.80;59.64;101411.56;4978668;28;96750;-90
2024/03/05 08:16:58;;;;;;;62.67;25.17;;;;;;;10.80;59.50;101411.56;4994997;28;96935;-91
2024/03/05 08:19:23;;;;;;;63.63;23.30;;;;;;;10.79;59.92;101424.56;4978643;28;100393;-91
2024/03/05 08:21:49;;;;;;;65.28;25.15;;;;;;;10.76;59.74;101419.28;4995413;28;97622;-91
2024/03/05 08:24:14;;;;;;;67.05;22.95;;;;;;;10.76;59.86;101419.28;4994829;28;96647;-91
2024/03/05 08:26:40;;;;;;;63.88;25.08;;;;;;;10.78;60.22;101418.44;4978820;28;96953;-91
2024/03/05 08:29:07;;;;;;;59.90;22.40;;;;;;;10.81;59.83;101426.34;4986346;28;100541;-91
2024/03/05 08:31:33;;;;;;;63.75;22.60;;;;;;;10.83;59.73;101422.03;4994601;28;100732;-92
2024/03/05 08:34:00;;;;;;;64.47;24.58;;;;;;;10.88;59.67;101423.88;4994242;28;96711;-91
2024/03/05 08:36:25;;;;;;;63.83;25.92;;;;;;;10.91;59.96;101426.53;4977582;28;96660;-91
2024/03/05 08:38:51;;;;;;;67.95;23.33;;;;;;;10.94;59.65;101422.25;4994195;28;100733;-91
2024/03/05 08:41:17;;;;;;;66.72;25.33;;;;;;;10.99;59.94;101422.34;4995540;28;99693;-90
2024/03/05 08:43:44;;;;;;;66.13;23.05;;;;;;;11.03;59.72;101422.47;4981232;28;96595;-90
2024/03/05 08:46:09;;;;;;;65.22;24.73;;;;;;;11.07;59.98;101430.31;4977647;28;96931;-90
2024/03/05 08:48:35;;;;;;;64.03;26.38;;;;;;;11.08;59.87;101421.66;4973589;28;99320;-90
2024/03/05 08:51:00;;;;;;;67.10;27.05;;;;;;;11.11;59.98;101429.56;4973414;28;100198;-90
2024/03/05 08:53:26;;;;;;;64.30;24.08;;;;;;;11.12;59.92;101429.56;4975201;28;96663;-89
2024/03/05 08:55:54;;;;;;;71.32;25.80;;;;;;;11.14;59.88;101425.28;4961396;28;96926;-90
2024/03/05 08:58:20;;;;;;;72.05;25.45;;;;;;;11.14;59.96;101424.38;4977364;28;100542;-90
2024/03/05 09:00:45;;;;;;;72.93;28.20;;;;;;;11.13;59.95;101423.50;4993610;28;98814;-90
2024/03/05 09:03:14;;;;;;;74.22;26.05;;;;;;;11.13;60.02;101422.63;4977452;28;96728;-89
2024/03/05 09:05:40;;;;;;;72.47;25.85;;;;;;;11.13;59.97;101426.13;4994083;28;96511;-90
2024/03/05 09:08:06;;;;;;;66.00;26.58;;;;;;;11.14;59.81;101430.50;4977197;28;100378;-90
2024/03/05 09:10:31;;;;;;;73.13;24.45;;;;;;;11.16;60.00;101433.16;4993503;28;100072;-91
2024/03/05 09:12:58;;;;;;;74.97;25.10;;;;;;;11.18;60.17;101426.22;4994137;28;96710;-90
2024/03/05 09:15:25;;;;;;;76.15;26.67;;;;;;;11.18;60.23;101423.59;4977442;28;96807;-90
2024/03/05 09:17:51;;;;;;;67.45;25.88;;;;;;;11.17;60.09;101430.53;4993945;28;99959;-90
2024/03/05 09:20:16;;;;;;;74.35;25.50;;;;;;;11.15;60.11;101432.25;4977218;28;98635;-90
2024/03/05 09:22:44;;;;;;;70.43;25.77;;;;;;;11.15;60.32;101439.19;4989144;28;96711;-90
2024/03/05 09:25:14;;;;;;;71.93;26.83;;;;;;;11.16;60.26;101444.47;4982134;28;96567;-90
2024/03/05 09:27:40;;;;;;;63.67;25.65;;;;;;;11.21;60.51;101447.16;4998502;28;97169;-89
2024/03/05 09:30:08;;;;;;;62.60;25.85;;;;;;;11.23;60.56;101440.25;4981624;28;99905;-92
2024/03/05 09:39:51;;;;;;;68.75;25.05;;;;;;;11.37;60.42;101443.09;4996431;28;100675;-90
2024/03/05 09:42:18;;;;;;;69.93;26.52;;;;;;;11.40;60.45;101438.81;4980321;28;100419;-91
2024/03/05 09:44:45;;;;;;;68.50;24.27;;;;;;;11.42;60.37;101444.06;4981609;28;96587;-90
2024/03/05 09:47:12;;;;;;;70.00;25.50;;;;;;;11.46;60.21;101437.16;4981376;28;97195;-91
2024/03/05 09:49:42;;;;;;;70.65;28.15;;;;;;;11.48;60.43;101440.69;4981016;28;99803;-89
2024/03/05 09:52:09;;;;;;;70.20;24.80;;;;;;;11.50;60.51;101444.22;4997173;28;101315;-90
2024/03/05 09:54:36;;;;;;;65.38;27.17;;;;;;;11.56;60.52;101437.34;4981034;28;96670;-90
2024/03/05 09:57:04;;;;;;;68.80;27.42;;;;;;;11.57;60.39;101444.34;4998879;28;97117;-91
2024/03/05 09:59:30;;;;;;;68.05;25.02;;;;;;;11.61;60.44;101447.91;4996971;28;99807;-91
2024/03/05 10:01:55;;;;;;;65.05;27.10;;;;;;;11.65;60.57;101449.72;4980138;28;100084;-91
2024/03/05 10:04:26;;;;;;;66.05;25.60;;;;;;;11.70;60.36;101455.91;4979598;28;96824;-91
2024/03/05 10:06:52;;;;;;;65.00;24.98;;;;;;;11.72;60.38;101455.94;4980626;28;96866;-91
2024/03/05 10:09:18;;;;;;;71.40;29.25;;;;;;;11.72;60.41;101455.94;4996671;28;100564;-91
2024/03/05 10:11:44;;;;;;;72.55;26.25;;;;;;;11.72;60.65;101461.16;4980235;28;98751;-91
2024/03/05 10:14:11;;;;;;;66.32;26.52;;;;;;;11.72;60.70;101454.19;4981291;28;96684;-90
2024/03/05 10:16:40;;;;;;;76.85;26.92;;;;;;;11.73;60.63;101453.34;4980600;28;96805;-91
2024/03/05 10:19:12;;;;;;;70.57;30.38;;;;;;;11.78;60.83;101456.03;4976986;28;100038;-90
2024/03/05 10:21:38;;;;;;;68.97;28.10;;;;;;;11.82;60.92;101460.47;4960716;28;99514;-91
2024/03/05 10:28:38;;;;;;;66.32;26.42;;;;;;;11.93;60.77;101456.34;4976035;28;96530;-90
2024/03/05 10:31:05;;;;;;;67.72;27.80;;;;;;;11.94;60.65;101458.09;4963893;28;100129;-90
2024/03/05 10:33:30;;;;;;;66.25;26.83;;;;;;;11.95;60.69;101457.22;4979619;28;99575;-91
2024/03/05 10:35:56;;;;;;;61.83;27.42;;;;;;;11.97;60.82;101463.38;4980600;28;96561;-90
2024/03/05 10:38:24;;;;;;;70.60;29.77;;;;;;;12.02;60.86;101462.59;4980410;28;96935;-90
2024/03/05 10:40:50;;;;;;;68.05;26.75;;;;;;;12.07;60.73;101461.81;4979464;28;100153;-91
2024/03/05 10:43:18;;;;;;;67.82;28.73;;;;;;;12.13;60.44;101461.00;4980252;28;100539;-91
2024/03/05 10:45:44;;;;;;;60.88;26.83;;;;;;;12.15;60.27;101462.78;4978364;28;96715;-93
2024/03/05 10:48:14;;;;;;;69.00;30.13;;;;;;;12.16;60.35;101463.69;4993861;28;96835;-91
2024/03/05 10:50:41;;;;;;;59.65;24.33;;;;;;;12.17;60.13;101468.94;4960127;28;99913;-91
2024/03/05 10:53:09;;;;;;;61.67;26.40;;;;;;;12.17;59.89;101466.34;4959973;28;99907;-90
2024/03/05 10:55:36;;;;;;;68.05;26.17;;;;;;;12.16;60.10;101468.91;4959475;28;96588;-91
2024/03/05 10:58:13;;;;;;;63.67;28.20;;;;;;;12.15;60.18;101467.13;4960154;28;96663;-91
2024/03/05 11:00:40;;;;;;;57.05;24.05;;;;;;;12.22;60.56;101463.75;4976555;28;97727;-91
2024/03/05 11:03:07;;;;;;;57.10;25.75;;;;;;;12.26;60.28;101467.31;4993511;28;98002;-91
2024/03/05 11:05:39;;;;;;;60.15;24.83;;;;;;;12.30;59.90;101467.41;4976950;28;96562;-91
2024/03/05 11:08:12;;;;;;;56.38;26.55;;;;;;;12.37;60.08;101468.34;4976876;28;96739;-92
2024/03/05 11:10:41;;;;;;;55.00;24.25;;;;;;;12.44;59.88;101469.31;4959986;28;99875;-91
2024/03/05 11:13:09;;;;;;;50.95;25.23;;;;;;;12.45;59.98;101461.50;4960876;28;98943;-91
2024/03/05 11:15:35;;;;;;;54.45;25.95;;;;;;;12.49;59.74;101459.81;4976212;28;96600;-91
2024/03/05 11:18:01;;;;;;;56.03;25.45;;;;;;;12.52;59.60;101462.47;4993059;28;96872;-91
2024/03/05 11:20:42;;;;;;;57.38;26.30;;;;;;;12.56;59.79;101470.38;4975670;28;99118;-91
2024/03/05 11:23:13;;;;;;;54.83;24.15;;;;;;;12.63;59.41;101468.72;5002342;28;99735;-91
2024/03/05 11:25:46;;;;;;;53.15;22.48;;;;;;;12.65;59.10;101476.63;4979952;28;96755;-91
2024/03/05 11:28:19;;;;;;;53.60;26.25;;;;;;;12.63;59.25;101473.97;4979312;28;96664;-91
2024/03/05 11:30:44;;;;;;;56.38;23.88;;;;;;;12.61;59.42;101478.31;4979504;28;101055;-94